createdAt,value
2018-05-08T00:00:37.423Z,0
2018-05-08T00:01:17.841Z,0
2018-05-08T00:01:58.227Z,0
2018-05-08T00:02:38.661Z,0
2018-05-08T00:03:19.050Z,0
2018-05-08T00:03:59.446Z,0
2018-05-08T00:04:39.835Z,0
2018-05-08T00:05:20.255Z,0
2018-05-08T00:06:00.654Z,0
2018-05-08T00:07:58.186Z,0
2018-05-08T00:08:38.485Z,0
2018-05-08T00:09:18.897Z,0
2018-05-08T00:09:59.325Z,0
2018-05-08T00:10:39.725Z,0
2018-05-08T00:11:20.123Z,0
2018-05-08T00:13:37.741Z,0
2018-05-08T00:14:18.131Z,0
2018-05-08T00:14:58.596Z,0
2018-05-08T00:15:38.964Z,0
2018-05-08T00:16:19.375Z,0
2018-05-08T00:16:59.770Z,0
2018-05-08T00:17:40.210Z,0
2018-05-08T00:18:20.581Z,0
2018-05-08T00:19:01.005Z,0
2018-05-08T00:19:41.437Z,0
2018-05-08T00:20:21.805Z,0
2018-05-08T00:21:02.255Z,0
2018-05-08T00:21:42.664Z,0
2018-05-08T00:22:23.116Z,0
2018-05-08T00:24:35.715Z,0
2018-05-08T00:25:16.009Z,0
2018-05-08T00:25:56.404Z,0
2018-05-08T00:26:36.810Z,0
2018-05-08T00:27:17.190Z,0
2018-05-08T00:27:57.615Z,0
2018-05-08T00:28:38.025Z,0
2018-05-08T00:29:18.418Z,0
2018-05-08T00:29:58.857Z,0
2018-05-08T00:30:39.245Z,0
2018-05-08T00:31:19.699Z,0
2018-05-08T00:32:00.086Z,0
2018-05-08T00:32:40.489Z,0
2018-05-08T00:33:20.869Z,0
2018-05-08T00:34:01.251Z,0
2018-05-08T00:34:41.663Z,0
2018-05-08T00:35:22.058Z,0
2018-05-08T00:36:02.489Z,0
2018-05-08T00:36:42.872Z,0
2018-05-08T00:37:23.292Z,0
2018-05-08T00:38:03.670Z,0
2018-05-08T00:38:44.088Z,0
2018-05-08T00:39:24.491Z,0
2018-05-08T00:40:04.886Z,0
2018-05-08T00:40:45.286Z,0
2018-05-08T00:41:25.668Z,0
2018-05-08T00:43:43.553Z,0
2018-05-08T00:46:16.889Z,0
2018-05-08T00:46:57.279Z,0
2018-05-08T00:47:37.651Z,0
2018-05-08T00:48:18.048Z,0
2018-05-08T00:48:58.462Z,0
2018-05-08T00:49:38.854Z,0
2018-05-08T00:50:19.316Z,0
2018-05-08T00:50:59.718Z,0
2018-05-08T00:51:40.126Z,0
2018-05-08T00:52:20.526Z,0
2018-05-08T00:53:00.976Z,0
2018-05-08T00:53:41.355Z,0
2018-05-08T00:54:21.766Z,0
2018-05-08T00:55:02.173Z,0
2018-05-08T00:55:42.576Z,0
2018-05-08T00:56:23.013Z,0
2018-05-08T00:57:03.365Z,0
2018-05-08T00:57:43.777Z,0
2018-05-08T00:58:24.177Z,0
2018-05-08T00:59:04.564Z,0
2018-05-08T00:59:45.009Z,0
2018-05-08T01:00:25.386Z,0
2018-05-08T01:01:05.807Z,0
2018-05-08T01:01:46.173Z,0
2018-05-08T01:02:26.572Z,0
2018-05-08T01:03:06.995Z,0
2018-05-08T01:03:47.403Z,0
2018-05-08T01:04:27.758Z,0
2018-05-08T01:05:08.151Z,0
2018-05-08T01:05:48.555Z,0
2018-05-08T01:06:28.962Z,0
2018-05-08T01:07:09.389Z,0
2018-05-08T01:07:49.791Z,0
2018-05-08T01:08:30.181Z,0
2018-05-08T01:09:10.575Z,0
2018-05-08T01:09:50.999Z,0
2018-05-08T01:10:31.429Z,0
2018-05-08T01:11:11.835Z,0
2018-05-08T01:11:52.232Z,0
2018-05-08T01:12:32.645Z,0
2018-05-08T01:13:13.049Z,0
2018-05-08T01:13:53.492Z,0
2018-05-08T01:14:33.900Z,0
2018-05-08T01:15:14.271Z,0
2018-05-08T01:15:54.629Z,0
2018-05-08T01:16:35.058Z,0
2018-05-08T01:17:15.415Z,0
2018-05-08T01:17:55.855Z,0
2018-05-08T01:18:36.260Z,0
2018-05-08T01:19:16.726Z,0
2018-05-08T01:19:57.135Z,0
2018-05-08T01:20:37.524Z,0
2018-05-08T01:21:17.944Z,0
2018-05-08T01:21:58.314Z,0
2018-05-08T01:22:38.736Z,0
2018-05-08T01:23:19.177Z,0
2018-05-08T01:23:59.556Z,0
2018-05-08T01:24:39.941Z,0
2018-05-08T01:25:20.347Z,0
2018-05-08T01:26:00.740Z,0
2018-05-08T01:26:41.136Z,0
2018-05-08T01:27:21.566Z,0
2018-05-08T01:28:02.005Z,0
2018-05-08T01:28:42.390Z,0
2018-05-08T01:29:22.790Z,0
2018-05-08T01:30:03.189Z,0
2018-05-08T01:30:43.612Z,0
2018-05-08T01:31:24.036Z,0
2018-05-08T01:32:04.443Z,0
2018-05-08T01:32:44.830Z,0
2018-05-08T01:33:25.251Z,0
2018-05-08T01:34:05.610Z,0
2018-05-08T01:34:46.028Z,0
2018-05-08T01:35:26.395Z,0
2018-05-08T01:36:06.827Z,0
2018-05-08T01:36:47.221Z,0
2018-05-08T01:37:27.629Z,0
2018-05-08T01:38:08.056Z,0
2018-05-08T01:38:48.413Z,0
2018-05-08T01:39:28.869Z,0
2018-05-08T01:40:09.268Z,0
2018-05-08T01:40:49.713Z,0
2018-05-08T01:41:30.082Z,0
2018-05-08T01:42:10.485Z,0
2018-05-08T01:42:50.895Z,0
2018-05-08T01:43:31.320Z,0
2018-05-08T01:44:11.696Z,0
2018-05-08T01:44:52.144Z,0
2018-05-08T01:45:32.528Z,0
2018-05-08T01:46:12.921Z,0
2018-05-08T01:46:53.364Z,0
2018-05-08T01:49:06.721Z,0
2018-05-08T01:49:47.056Z,0
2018-05-08T01:50:27.454Z,0
2018-05-08T01:51:07.855Z,0
2018-05-08T01:51:48.269Z,0
2018-05-08T01:54:00.756Z,0
2018-05-08T01:54:41.150Z,0
2018-05-08T01:55:21.541Z,0
2018-05-08T01:56:01.913Z,0
2018-05-08T01:56:42.325Z,0
2018-05-08T01:57:22.742Z,0
2018-05-08T01:58:03.132Z,0
2018-05-08T01:58:43.563Z,0
2018-05-08T01:59:23.958Z,0
2018-05-08T02:00:04.357Z,0
2018-05-08T02:00:44.780Z,0
2018-05-08T02:01:25.185Z,0
2018-05-08T02:02:05.663Z,0
2018-05-08T02:02:46.004Z,0
2018-05-08T02:03:26.444Z,0
2018-05-08T02:04:06.802Z,0
2018-05-08T02:06:39.745Z,0
2018-05-08T02:07:21.056Z,0
2018-05-08T02:08:01.452Z,0
2018-05-08T02:08:41.824Z,0
2018-05-08T02:09:22.257Z,0
2018-05-08T02:10:02.670Z,0
2018-05-08T02:10:43.065Z,0
2018-05-08T02:11:23.453Z,0
2018-05-08T02:13:51.203Z,0
2018-05-08T02:16:18.825Z,0
2018-05-08T02:16:59.180Z,0
2018-05-08T02:17:39.613Z,0
2018-05-08T02:18:20.007Z,0
2018-05-08T02:19:00.376Z,0
2018-05-08T02:19:40.808Z,0
2018-05-08T02:20:21.275Z,0
2018-05-08T02:21:01.575Z,0
2018-05-08T02:21:42.047Z,0
2018-05-08T02:22:22.438Z,0
2018-05-08T02:23:02.842Z,0
2018-05-08T02:23:43.270Z,0
2018-05-08T02:24:23.656Z,0
2018-05-08T02:25:04.111Z,0
2018-05-08T02:25:44.497Z,0
2018-05-08T02:26:25.005Z,0
2018-05-08T02:27:05.364Z,0
2018-05-08T02:27:45.744Z,0
2018-05-08T02:28:26.161Z,0
2018-05-08T02:29:06.559Z,0
2018-05-08T02:29:46.970Z,0
2018-05-08T02:30:27.388Z,0
2018-05-08T02:31:07.784Z,0
2018-05-08T02:31:48.220Z,0
2018-05-08T02:32:28.590Z,0
2018-05-08T02:33:09.032Z,0
2018-05-08T02:33:49.397Z,0
2018-05-08T02:34:29.834Z,0
2018-05-08T02:35:10.236Z,0
2018-05-08T02:35:50.677Z,0
2018-05-08T02:36:31.078Z,0
2018-05-08T02:37:11.423Z,0
2018-05-08T02:37:51.841Z,0
2018-05-08T02:38:32.258Z,0
2018-05-08T02:39:12.626Z,0
2018-05-08T02:39:53.024Z,0
2018-05-08T02:40:33.384Z,0
2018-05-08T02:41:13.766Z,0
2018-05-08T02:41:54.165Z,0
2018-05-08T02:42:34.547Z,0
2018-05-08T02:43:15.005Z,0
2018-05-08T02:43:55.390Z,0
2018-05-08T02:44:35.796Z,0
2018-05-08T02:45:16.211Z,0
2018-05-08T02:45:56.600Z,0
2018-05-08T02:46:37.016Z,0
2018-05-08T02:47:17.421Z,0
2018-05-08T02:47:57.809Z,0
2018-05-08T02:48:38.229Z,0
2018-05-08T02:49:18.635Z,0
2018-05-08T02:49:59.014Z,0
2018-05-08T02:50:39.435Z,0
2018-05-08T02:51:19.908Z,0
2018-05-08T02:52:00.274Z,0
2018-05-08T02:52:40.727Z,0
2018-05-08T02:53:21.109Z,0
2018-05-08T02:54:01.515Z,0
2018-05-08T02:54:41.930Z,0
2018-05-08T02:55:22.309Z,0
2018-05-08T02:56:02.730Z,0
2018-05-08T02:56:43.131Z,0
2018-05-08T02:57:23.473Z,0
2018-05-08T02:58:03.898Z,0
2018-05-08T02:58:44.302Z,0
2018-05-08T02:59:24.711Z,0
2018-05-08T03:00:05.167Z,0
2018-05-08T03:00:45.534Z,0
2018-05-08T03:01:25.941Z,0
2018-05-08T03:02:06.331Z,0
2018-05-08T03:02:46.729Z,0
2018-05-08T03:03:27.189Z,0
2018-05-08T03:04:07.556Z,0
2018-05-08T03:04:48.035Z,0
2018-05-08T03:05:28.462Z,0
2018-05-08T03:06:08.825Z,0
2018-05-08T03:06:49.193Z,0
2018-05-08T03:07:29.604Z,0
2018-05-08T03:08:10.034Z,0
2018-05-08T03:08:50.442Z,0
2018-05-08T03:09:30.846Z,0
2018-05-08T03:10:11.248Z,0
2018-05-08T03:10:51.695Z,0
2018-05-08T03:11:32.049Z,0
2018-05-08T03:12:12.478Z,0
2018-05-08T03:12:52.899Z,0
2018-05-08T03:13:33.264Z,0
2018-05-08T03:14:13.672Z,0
2018-05-08T03:14:54.079Z,0
2018-05-08T03:15:34.482Z,0
2018-05-08T03:16:14.881Z,0
2018-05-08T03:16:55.281Z,4
2018-05-08T03:17:35.729Z,4
2018-05-08T03:18:16.070Z,0
2018-05-08T03:18:56.498Z,0
2018-05-08T03:19:36.898Z,0
2018-05-08T03:20:17.303Z,4
2018-05-08T03:20:57.696Z,4
2018-05-08T03:21:38.081Z,0
2018-05-08T03:22:18.530Z,0
2018-05-08T03:22:58.897Z,4
2018-05-08T03:23:39.271Z,4
2018-05-08T03:24:19.719Z,0
2018-05-08T03:25:00.071Z,4
2018-05-08T03:25:40.512Z,0
2018-05-08T03:26:20.892Z,4
2018-05-08T03:27:01.303Z,8
2018-05-08T03:27:41.765Z,4
2018-05-08T03:28:22.165Z,8
2018-05-08T03:29:02.578Z,4
2018-05-08T03:29:42.997Z,4
2018-05-08T03:31:40.516Z,8
2018-05-08T03:32:20.824Z,8
2018-05-08T03:33:01.200Z,8
2018-05-08T03:33:41.591Z,12
2018-05-08T03:34:22.048Z,12
2018-05-08T03:35:02.417Z,12
2018-05-08T03:35:42.848Z,12
2018-05-08T03:36:23.239Z,12
2018-05-08T03:37:03.647Z,16
2018-05-08T03:37:44.036Z,16
2018-05-08T03:38:24.477Z,20
2018-05-08T03:39:04.897Z,24
2018-05-08T03:41:22.547Z,28
2018-05-08T03:42:02.829Z,28
2018-05-08T03:42:43.245Z,32
2018-05-08T03:43:23.673Z,36
2018-05-08T03:44:04.028Z,36
2018-05-08T03:44:44.455Z,40
2018-05-08T03:45:24.898Z,44
2018-05-08T03:46:05.281Z,44
2018-05-08T03:46:45.677Z,48
2018-05-08T03:47:26.124Z,52
2018-05-08T03:48:06.513Z,60
2018-05-08T03:48:46.945Z,60
2018-05-08T03:49:27.373Z,64
2018-05-08T03:50:07.781Z,68
2018-05-08T03:50:48.200Z,72
2018-05-08T03:51:28.541Z,80
2018-05-08T03:52:08.960Z,80
2018-05-08T03:52:49.356Z,88
2018-05-08T03:53:29.702Z,92
2018-05-08T03:54:10.144Z,96
2018-05-08T03:54:50.474Z,100
2018-05-08T03:55:30.911Z,104
2018-05-08T03:56:11.380Z,112
2018-05-08T03:56:51.666Z,120
2018-05-08T03:57:32.067Z,128
2018-05-08T03:59:59.855Z,152
2018-05-08T04:00:40.323Z,156
2018-05-08T04:01:20.743Z,168
2018-05-08T04:02:01.137Z,176
2018-05-08T04:41:51.544Z,5940
2018-05-08T04:42:31.819Z,6308
2018-05-08T04:43:12.307Z,6552
2018-05-08T04:43:52.752Z,6660
2018-05-08T04:44:33.164Z,6848
2018-05-08T04:45:13.570Z,7232
2018-05-08T04:45:53.955Z,7452
2018-05-08T04:46:34.357Z,7740
2018-05-08T04:47:14.757Z,8028
2018-05-08T04:47:55.260Z,8368
2018-05-08T04:48:35.683Z,8660
2018-05-08T04:49:16.161Z,9140
2018-05-08T04:49:56.630Z,9368
2018-05-08T04:50:37.244Z,9756
2018-05-08T04:51:17.701Z,10048
2018-05-08T04:51:58.098Z,10368
2018-05-08T04:54:11.088Z,11488
2018-05-08T04:54:51.449Z,11616
2018-05-08T04:57:06.438Z,12096
2018-05-08T04:57:47.084Z,12224
2018-05-08T04:58:27.533Z,12256
2018-05-08T04:59:07.950Z,12256
2018-05-08T04:59:48.448Z,13056
2018-05-08T05:00:28.929Z,13440
2018-05-08T05:01:09.422Z,13536
2018-05-08T05:01:49.764Z,13664
2018-05-08T05:02:30.162Z,13856
2018-05-08T05:03:10.560Z,14656
2018-05-08T05:03:50.947Z,14592
2018-05-08T05:04:31.406Z,13920
2018-05-08T05:05:11.804Z,14048
2018-05-08T05:05:52.189Z,14656
2018-05-08T05:06:32.808Z,15264
2018-05-08T05:07:13.308Z,15808
2018-05-08T05:07:53.749Z,16192
2018-05-08T05:08:34.152Z,16448
2018-05-08T05:09:14.578Z,16608
2018-05-08T05:09:55.011Z,15904
2018-05-08T05:10:35.386Z,16320
2018-05-08T05:11:16.033Z,16480
2018-05-08T05:11:56.235Z,18048
2018-05-08T05:12:36.707Z,18016
2018-05-08T05:13:17.082Z,18784
2018-05-08T05:13:57.697Z,18944
2018-05-08T05:14:38.383Z,18688
2018-05-08T05:15:18.737Z,18592
2018-05-08T05:15:59.132Z,18656
2018-05-08T05:16:39.724Z,19328
2018-05-08T05:17:20.017Z,19776
2018-05-08T05:18:00.477Z,20064
2018-05-08T05:18:40.969Z,20608
2018-05-08T05:19:21.557Z,22112
2018-05-08T05:20:03.183Z,22560
2018-05-08T05:20:45.058Z,22592
2018-05-08T05:21:25.671Z,22592
2018-05-08T05:22:04.232Z,22400
2018-05-08T05:22:45.023Z,21696
2018-05-08T05:23:25.614Z,22560
2018-05-08T05:24:06.178Z,23328
2018-05-08T05:24:46.716Z,24288
2018-05-08T05:25:27.325Z,23424
2018-05-08T05:26:07.799Z,22624
2018-05-08T05:26:49.131Z,22016
2018-05-08T05:27:29.786Z,22656
2018-05-08T05:28:10.288Z,22400
2018-05-08T05:28:51.605Z,21632
2018-05-08T05:29:33.333Z,22944
2018-05-08T05:30:14.803Z,22208
2018-05-08T05:30:55.235Z,22048
2018-05-08T05:31:35.722Z,21664
2018-05-08T05:32:16.199Z,22720
2018-05-08T05:32:56.552Z,25760
2018-05-08T05:33:36.961Z,28224
2018-05-08T05:34:17.544Z,29984
2018-05-08T05:36:45.913Z,30368
2018-05-08T05:37:27.366Z,30432
2018-05-08T05:38:07.806Z,30336
2018-05-08T05:38:48.942Z,28832
2018-05-08T05:39:29.413Z,27520
2018-05-08T05:40:09.873Z,27936
2018-05-08T05:40:50.457Z,29088
2018-05-08T05:41:30.841Z,28736
2018-05-08T05:42:11.271Z,27456
2018-05-08T05:42:51.681Z,27712
2018-05-08T05:43:32.186Z,29856
2018-05-08T05:44:12.532Z,30784
2018-05-08T05:44:53.044Z,31584
2018-05-08T05:45:33.362Z,30848
2018-05-08T05:46:13.928Z,31168
2018-05-08T05:46:54.434Z,31680
2018-05-08T05:47:34.822Z,30912
2018-05-08T05:48:16.067Z,29408
2018-05-08T05:48:55.985Z,28896
2018-05-08T05:49:36.492Z,30944
2018-05-08T05:50:16.900Z,31488
2018-05-08T05:50:57.509Z,31872
2018-05-08T05:51:38.051Z,31776
2018-05-08T05:52:18.610Z,32448
2018-05-08T05:52:59.034Z,33760
2018-05-08T05:53:39.513Z,33696
2018-05-08T05:54:19.916Z,34272
2018-05-08T05:56:35.498Z,32576
2018-05-08T05:57:15.932Z,33344
2018-05-08T05:57:56.467Z,33984
2018-05-08T05:58:36.848Z,36032
2018-05-08T05:59:17.302Z,36576
2018-05-08T05:59:57.684Z,38112
2018-05-08T06:00:38.086Z,38272
2018-05-08T06:01:18.514Z,37088
2018-05-08T06:01:58.908Z,36768
2018-05-08T06:02:39.345Z,36128
2018-05-08T06:03:19.826Z,36768
2018-05-08T06:04:00.301Z,37344
2018-05-08T06:04:40.708Z,38176
2018-05-08T06:05:21.111Z,39040
2018-05-08T06:06:01.931Z,38656
2018-05-08T06:06:43.098Z,39040
2018-05-08T06:07:23.742Z,37952
2018-05-08T06:08:05.767Z,37984
2018-05-08T06:08:47.867Z,39168
2018-05-08T06:09:30.235Z,40992
2018-05-08T06:10:10.691Z,42144
2018-05-08T06:10:51.182Z,41440
2018-05-08T06:11:35.034Z,39648
2018-05-08T06:12:16.369Z,40672
2018-05-08T06:12:57.612Z,41984
2018-05-08T06:13:37.469Z,42336
2018-05-08T06:14:17.924Z,41952
2018-05-08T06:14:58.515Z,42208
2018-05-08T06:15:38.983Z,42208
2018-05-08T06:16:19.488Z,41216
2018-05-08T06:17:01.009Z,40704
2018-05-08T06:17:47.147Z,41792
2018-05-08T06:18:25.187Z,42976
2018-05-08T06:19:08.997Z,46048
2018-05-08T06:19:48.822Z,46656
2018-05-08T06:20:29.296Z,46336
2018-05-08T06:21:09.905Z,46240
2018-05-08T06:21:50.269Z,47616
2018-05-08T06:22:30.747Z,49248
2018-05-08T06:23:12.209Z,49728
2018-05-08T06:23:52.853Z,47296
2018-05-08T06:24:33.313Z,47008
2018-05-08T06:25:13.789Z,47456
2018-05-08T06:25:54.251Z,50048
2018-05-08T06:26:34.875Z,53312
2018-05-08T06:27:15.301Z,55168
2018-05-08T06:27:55.806Z,55520
2018-05-08T06:28:36.580Z,56480
2018-05-08T06:29:32.602Z,51872
2018-05-08T06:30:13.093Z,42624
2018-05-08T06:30:53.552Z,39296
2018-05-08T06:31:34.035Z,37504
2018-05-08T06:32:14.514Z,36960
2018-05-08T06:32:54.936Z,34496
2018-05-08T06:33:35.411Z,32768
2018-05-08T06:34:15.864Z,32192
2018-05-08T06:34:56.259Z,28768
2018-05-08T06:35:37.280Z,25184
2018-05-08T06:36:17.693Z,23968
2018-05-08T06:36:58.114Z,26560
2018-05-08T06:37:38.527Z,32320
2018-05-08T06:38:19.166Z,36608
2018-05-08T06:39:00.142Z,35808
2018-05-08T06:39:41.581Z,32352
2018-05-08T06:40:22.278Z,30496
2018-05-08T06:42:28.183Z,31520
2018-05-08T06:43:15.303Z,33216
2018-05-08T06:43:55.727Z,34528
2018-05-08T06:44:39.859Z,34560
2018-05-08T06:45:20.403Z,35008
2018-05-08T06:49:39.156Z,43520
2018-05-08T06:50:19.587Z,43168
2018-05-08T06:50:59.961Z,40000
2018-05-08T06:51:40.410Z,36672
2018-05-08T06:52:20.853Z,35296
2018-05-08T06:53:01.368Z,35232
2018-05-08T06:53:41.866Z,35008
2018-05-08T06:54:24.220Z,36512
2018-05-08T06:55:04.693Z,38176
2018-05-08T06:55:45.132Z,39232
2018-05-08T06:56:25.483Z,39424
2018-05-08T06:57:05.939Z,39936
2018-05-08T06:57:46.387Z,42368
2018-05-08T06:58:26.780Z,45728
2018-05-08T06:59:07.177Z,50304
2018-05-08T06:59:47.737Z,51200
2018-05-08T07:00:28.074Z,52800
2018-05-08T07:01:08.518Z,52832
2018-05-08T07:01:48.982Z,54464
2018-05-08T07:02:29.449Z,54848
2018-05-08T07:03:10.044Z,57024
2018-05-08T07:03:50.734Z,58944
2018-05-08T07:04:31.121Z,59712
2018-05-08T07:05:11.563Z,59808
2018-05-08T07:05:51.974Z,58560
2018-05-08T07:06:32.405Z,56736
2018-05-08T07:07:12.836Z,56256
2018-05-08T07:07:53.238Z,55680
2018-05-08T07:08:34.050Z,56544
2018-05-08T07:09:14.447Z,46208
2018-05-08T07:09:54.858Z,34720
2018-05-08T07:10:35.315Z,25856
2018-05-08T07:11:15.819Z,24416
2018-05-08T07:11:56.486Z,23744
2018-05-08T07:12:37.115Z,23008
2018-05-08T07:13:18.598Z,22688
2018-05-08T07:13:58.862Z,22560
2018-05-08T07:14:38.871Z,22304
2018-05-08T07:15:19.271Z,22016
2018-05-08T07:15:59.873Z,22048
2018-05-08T07:16:40.113Z,21792
2018-05-08T07:17:20.532Z,21088
2018-05-08T07:18:01.159Z,20864
2018-05-08T07:18:41.604Z,20320
2018-05-08T07:19:22.021Z,20672
2018-05-08T07:20:02.481Z,20960
2018-05-08T07:20:43.213Z,20576
2018-05-08T07:21:23.528Z,19520
2018-05-08T07:22:04.026Z,18912
2018-05-08T07:22:44.473Z,17984
2018-05-08T07:23:24.942Z,14280
2018-05-08T07:24:05.419Z,10084
2018-05-08T07:24:47.099Z,7364
2018-05-08T07:25:27.480Z,6476
2018-05-08T07:26:07.900Z,6084
2018-05-08T07:26:48.353Z,5700
2018-05-08T07:27:28.962Z,5404
2018-05-08T07:28:09.401Z,5120
2018-05-08T07:28:49.865Z,4916
2018-05-08T07:29:30.499Z,4744
2018-05-08T07:30:10.978Z,4564
2018-05-08T07:30:51.407Z,4416
2018-05-08T07:31:32.070Z,4316
2018-05-08T07:32:12.809Z,4228
2018-05-08T07:32:54.790Z,4176
2018-05-08T07:33:34.936Z,4116
2018-05-08T07:34:20.143Z,4036
2018-05-08T07:35:00.723Z,3940
2018-05-08T07:35:41.240Z,3884
2018-05-08T07:36:21.705Z,3856
2018-05-08T07:37:02.321Z,3780
2018-05-08T07:37:42.557Z,3700
2018-05-08T07:38:23.047Z,3656
2018-05-08T07:39:03.486Z,3628
2018-05-08T07:39:43.914Z,3572
2018-05-08T07:40:24.360Z,3524
2018-05-08T07:41:04.806Z,3448
2018-05-08T07:41:45.824Z,3396
2018-05-08T07:42:25.877Z,3344
2018-05-08T07:43:06.806Z,3312
2018-05-08T07:43:46.908Z,3256
2018-05-08T07:44:27.387Z,3212
2018-05-08T07:45:07.893Z,3172
2018-05-08T07:45:48.450Z,3124
2018-05-08T07:46:28.821Z,3068
2018-05-08T07:47:09.399Z,3032
2018-05-08T07:47:49.817Z,3000
2018-05-08T07:48:30.270Z,2976
2018-05-08T07:49:12.394Z,2956
2018-05-08T07:49:52.965Z,2924
2018-05-08T07:50:34.884Z,2896
2018-05-08T07:51:15.465Z,2868
2018-05-08T07:51:56.170Z,2848
2018-05-08T07:52:37.436Z,2820
2018-05-08T07:53:17.853Z,2792
2018-05-08T07:53:58.403Z,2772
2018-05-08T07:54:38.883Z,2740
2018-05-08T07:55:19.301Z,2708
2018-05-08T07:55:59.790Z,2688
2018-05-08T07:56:40.302Z,2660
2018-05-08T07:57:20.849Z,2640
2018-05-08T07:58:01.359Z,2616
2018-05-08T07:58:41.771Z,2592
2018-05-08T07:59:22.201Z,2568
2018-05-08T08:00:02.953Z,2544
2018-05-08T08:00:43.452Z,2508
2018-05-08T08:01:23.906Z,2480
2018-05-08T08:02:04.484Z,2452
2018-05-08T08:02:44.983Z,2440
2018-05-08T08:03:25.448Z,2420
2018-05-08T08:04:06.008Z,2404
2018-05-08T08:04:46.484Z,2396
2018-05-08T08:05:29.670Z,2372
2018-05-08T08:06:11.358Z,2364
2018-05-08T08:06:51.286Z,2348
2018-05-08T08:07:34.658Z,2336
2018-05-08T08:08:14.953Z,2328
2018-05-08T08:08:55.403Z,2316
2018-05-08T08:09:35.831Z,2304
2018-05-08T08:10:16.286Z,2292
2018-05-08T08:10:56.745Z,2284
2018-05-08T08:11:37.273Z,2272
2018-05-08T08:12:17.659Z,2268
2018-05-08T08:12:58.108Z,2256
2018-05-08T08:13:38.613Z,2248
2018-05-08T08:14:19.069Z,2240
2018-05-08T08:15:00.225Z,2232
2018-05-08T08:15:40.767Z,2224
2018-05-08T08:16:22.192Z,2220
2018-05-08T08:17:03.063Z,2216
2018-05-08T08:17:43.549Z,2204
2018-05-08T08:18:23.915Z,2200
2018-05-08T08:19:04.547Z,2196
2018-05-08T08:19:45.781Z,2192
2018-05-08T08:20:26.207Z,2180
2018-05-08T08:21:08.010Z,2176
2018-05-08T08:21:49.368Z,2168
2018-05-08T08:22:29.115Z,2160
2018-05-08T08:23:10.501Z,2160
2018-05-08T08:23:51.091Z,2148
2018-05-08T08:24:31.704Z,2144
2018-05-08T08:25:12.041Z,2140
2018-05-08T08:25:52.541Z,2140
2018-05-08T08:26:33.057Z,2132
2018-05-08T08:27:13.631Z,2124
2018-05-08T08:27:54.271Z,2124
2018-05-08T08:28:34.582Z,2120
2018-05-08T08:29:15.317Z,2120
2018-05-08T08:29:56.095Z,2112
2018-05-08T08:30:37.505Z,2112
2018-05-08T08:31:18.499Z,2108
2018-05-08T08:31:58.861Z,2100
2018-05-08T08:32:38.661Z,2096
2018-05-08T08:33:19.165Z,2092
2018-05-08T08:33:59.717Z,2088
2018-05-08T08:34:40.385Z,2088
2018-05-08T08:35:21.027Z,2084
2018-05-08T08:36:05.477Z,2080
2018-05-08T08:36:46.377Z,2080
2018-05-08T08:37:27.079Z,2076
2018-05-08T08:38:07.889Z,2068
2018-05-08T08:38:48.885Z,2064
2018-05-08T08:39:29.309Z,2060
2018-05-08T08:40:09.779Z,2056
2018-05-08T08:40:50.425Z,2056
2018-05-08T08:41:30.832Z,2056
2018-05-08T08:42:11.495Z,2052
2018-05-08T08:42:52.176Z,2052
2018-05-08T08:43:32.737Z,2048
2018-05-08T08:44:13.873Z,2048
2018-05-08T08:44:54.819Z,2040
2018-05-08T08:45:35.490Z,2036
2018-05-08T08:46:16.666Z,2036
2018-05-08T08:46:57.247Z,2032
2018-05-08T08:47:37.961Z,2028
2018-05-08T08:48:19.440Z,2028
2018-05-08T08:48:59.888Z,2024
2018-05-08T08:49:40.915Z,2024
2018-05-08T08:50:21.742Z,2024
2018-05-08T08:51:03.381Z,2020
2018-05-08T08:51:44.422Z,2020
2018-05-08T08:52:25.357Z,2016
2018-05-08T08:53:06.168Z,2020
2018-05-08T08:53:46.833Z,2016
2018-05-08T08:54:27.585Z,2012
2018-05-08T08:55:08.372Z,2008
2018-05-08T08:55:48.849Z,2008
2018-05-08T08:56:29.342Z,2008
2018-05-08T08:57:09.817Z,2000
2018-05-08T08:57:50.306Z,2000
2018-05-08T08:58:30.830Z,2000
2018-05-08T08:59:11.313Z,1996
2018-05-08T08:59:53.102Z,1996
2018-05-08T09:00:34.057Z,1992
2018-05-08T09:01:14.478Z,1988
2018-05-08T09:01:55.907Z,1984
2018-05-08T09:02:35.778Z,1984
2018-05-08T09:03:16.364Z,1980
2018-05-08T09:03:56.880Z,1976
2018-05-08T09:04:37.913Z,1976
2018-05-08T09:05:18.076Z,1968
2018-05-08T09:05:59.415Z,1968
2018-05-08T09:06:40.211Z,1964
2018-05-08T09:07:20.568Z,1964
2018-05-08T09:08:01.006Z,1964
2018-05-08T09:08:41.620Z,1960
2018-05-08T09:09:22.552Z,1960
2018-05-08T09:10:03.959Z,1956
2018-05-08T09:10:44.390Z,1952
2018-05-08T09:11:24.802Z,1952
2018-05-08T09:12:05.296Z,1948
2018-05-08T09:12:45.882Z,1952
2018-05-08T09:13:26.211Z,1944
2018-05-08T09:14:06.568Z,1944
2018-05-08T09:14:47.187Z,1944
2018-05-08T09:15:27.539Z,1940
2018-05-08T09:16:08.019Z,1940
2018-05-08T09:16:48.676Z,1940
2018-05-08T09:17:29.054Z,1932
2018-05-08T09:18:09.533Z,1928
2018-05-08T09:18:50.095Z,1924
2018-05-08T09:19:30.828Z,1928
2018-05-08T09:20:11.298Z,1928
2018-05-08T09:20:51.929Z,1924
2018-05-08T09:21:33.384Z,1920
2018-05-08T09:22:13.171Z,1920
2018-05-08T09:22:53.758Z,1916
2018-05-08T09:23:34.057Z,1912
2018-05-08T09:24:14.568Z,1912
2018-05-08T09:24:56.541Z,1908
2018-05-08T09:25:36.394Z,1904
2018-05-08T09:26:16.902Z,1900
2018-05-08T09:26:57.355Z,1896
2018-05-08T09:27:38.550Z,1896
2018-05-08T09:28:18.390Z,1896
2018-05-08T09:28:59.889Z,1892
2018-05-08T09:29:40.307Z,1892
2018-05-08T09:30:21.985Z,1888
2018-05-08T09:31:02.594Z,1892
2018-05-08T09:31:43.782Z,1884
2018-05-08T09:32:24.006Z,1884
2018-05-08T09:33:04.532Z,1884
2018-05-08T09:33:46.206Z,1888
2018-05-08T09:34:26.603Z,1884
2018-05-08T09:35:07.066Z,1884
2018-05-08T09:35:49.398Z,1876
2018-05-08T09:36:29.187Z,1872
2018-05-08T09:37:10.923Z,1868
2018-05-08T09:37:51.406Z,1868
2018-05-08T09:38:32.383Z,1872
2018-05-08T09:39:14.392Z,1864
2018-05-08T09:39:54.741Z,1864
2018-05-08T09:40:36.432Z,1860
2018-05-08T09:41:16.938Z,1856
2018-05-08T09:41:57.968Z,1856
2018-05-08T09:42:39.114Z,1848
2018-05-08T09:43:20.449Z,1844
2018-05-08T09:44:00.275Z,1848
2018-05-08T09:44:41.880Z,1848
2018-05-08T09:45:21.539Z,1844
2018-05-08T09:46:02.195Z,1840
2018-05-08T09:46:42.966Z,1840
2018-05-08T09:47:23.394Z,1832
2018-05-08T09:48:04.065Z,1832
2018-05-08T09:48:45.687Z,1824
2018-05-08T09:49:26.189Z,1824
2018-05-08T09:50:06.932Z,1820
2018-05-08T09:50:49.099Z,1820
2018-05-08T09:51:29.027Z,1820
2018-05-08T09:52:09.570Z,1816
2018-05-08T09:52:50.012Z,1812
2018-05-08T09:53:30.652Z,1808
2018-05-08T09:54:12.306Z,1808
2018-05-08T09:54:52.813Z,1804
2018-05-08T09:55:33.683Z,1800
2018-05-08T09:56:16.816Z,1796
2018-05-08T09:56:57.385Z,1796
2018-05-08T09:57:38.577Z,1788
2018-05-08T09:58:19.299Z,1780
2018-05-08T09:58:59.888Z,1784
2018-05-08T09:59:40.995Z,1776
2018-05-08T10:00:21.242Z,1772
2018-05-08T10:01:02.237Z,1772
2018-05-08T10:01:42.561Z,1772
2018-05-08T10:02:23.092Z,1768
2018-05-08T10:03:03.517Z,1764
2018-05-08T10:03:44.073Z,1764
2018-05-08T10:42:49.114Z,1652
2018-05-08T10:43:39.739Z,1648
2018-05-08T10:44:21.637Z,1652
2018-05-08T10:45:02.180Z,1640
2018-05-08T10:45:42.672Z,1640
2018-05-08T10:46:23.184Z,1640
2018-05-08T10:47:03.784Z,1636
2018-05-08T10:47:44.408Z,1632
2018-05-08T10:48:24.930Z,1632
2018-05-08T10:49:05.516Z,1628
2018-05-08T10:51:23.763Z,1628
2018-05-08T10:52:12.641Z,1628
2018-05-08T10:54:09.919Z,1624
2018-05-08T10:55:06.284Z,1616
2018-05-08T10:56:09.346Z,1612
2018-05-08T10:56:49.852Z,1612
2018-05-08T10:57:30.328Z,1604
2018-05-08T10:58:25.877Z,1604
2018-05-08T10:59:27.530Z,1604
2018-05-08T11:00:08.048Z,1600
2018-05-08T11:00:49.197Z,1596
2018-05-08T11:01:29.638Z,1596
2018-05-08T11:03:44.320Z,1592
2018-05-08T11:04:38.957Z,1596
2018-05-08T11:05:34.089Z,1596
2018-05-08T11:06:46.896Z,1596
2018-05-08T11:07:27.284Z,1592
2018-05-08T11:08:07.740Z,1584
2018-05-08T11:08:48.183Z,1588
2018-05-08T11:09:31.081Z,1584
2018-05-08T11:10:11.485Z,1580
2018-05-08T11:10:52.006Z,1576
2018-05-08T11:11:32.486Z,1576
2018-05-08T11:12:12.881Z,1572
2018-05-08T11:12:56.190Z,1568
2018-05-08T11:13:36.676Z,1568
2018-05-08T11:14:17.013Z,1564